createdAt,value
2022-11-25T00:01:31.504Z,17.30
2022-11-25T00:06:54.060Z,16.97
2022-11-25T00:12:16.663Z,18.50
2022-11-25T00:17:38.993Z,18.33
2022-11-25T00:23:01.381Z,17.53
2022-11-25T00:28:23.661Z,17.33
2022-11-25T00:33:46.629Z,17.27
2022-11-25T00:39:14.156Z,19.23
2022-11-25T00:44:37.483Z,18.83
2022-11-25T00:50:00.121Z,19.07
2022-11-25T00:55:22.944Z,18.00
2022-11-25T01:00:45.215Z,18.07
2022-11-25T01:06:11.135Z,19.10
2022-11-25T01:11:33.765Z,16.00
2022-11-25T01:16:56.318Z,18.97
2022-11-25T01:22:18.791Z,18.93
2022-11-25T01:27:43.180Z,17.77
2022-11-25T01:33:05.747Z,18.10
2022-11-25T01:38:28.143Z,17.80
2022-11-25T01:44:12.551Z,17.90
2022-11-25T01:50:00.185Z,16.87
2022-11-25T01:55:26.704Z,16.57
2022-11-25T02:00:51.546Z,16.70
2022-11-25T02:06:25.405Z,17.00
2022-11-25T02:11:48.039Z,17.37
2022-11-25T02:17:10.599Z,17.23
2022-11-25T02:23:03.243Z,19.80
2022-11-25T02:28:29.821Z,18.70
2022-11-25T02:33:52.426Z,18.07
2022-11-25T02:39:14.691Z,16.63
2022-11-25T02:44:37.959Z,17.67
2022-11-25T02:50:00.532Z,17.90
2022-11-25T02:55:23.130Z,16.63
2022-11-25T03:00:46.202Z,16.27
2022-11-25T03:06:10.188Z,17.40
2022-11-25T03:11:52.040Z,17.23
2022-11-25T03:17:15.872Z,17.13
2022-11-25T03:22:38.585Z,17.93
2022-11-25T03:28:01.308Z,16.60
2022-11-25T03:33:24.569Z,16.87
2022-11-25T03:38:47.010Z,16.20
2022-11-25T03:44:10.119Z,18.23
2022-11-25T03:49:32.873Z,17.60
2022-11-25T03:54:55.604Z,16.83
2022-11-25T04:00:21.244Z,16.73
2022-11-25T04:05:53.952Z,16.67
2022-11-25T04:11:16.446Z,17.23
2022-11-25T04:16:43.452Z,17.33
2022-11-25T04:22:05.966Z,16.17
2022-11-25T04:27:32.052Z,17.93
2022-11-25T04:32:54.934Z,17.40
2022-11-25T04:38:17.890Z,16.90
2022-11-25T04:43:40.696Z,16.20
2022-11-25T04:49:07.468Z,16.37
2022-11-25T04:54:30.032Z,16.27
2022-11-25T04:59:54.918Z,16.90
2022-11-25T05:05:17.416Z,16.07
2022-11-25T05:10:40.685Z,15.77
2022-11-25T05:16:03.818Z,16.90
2022-11-25T05:21:26.950Z,16.03
2022-11-25T05:26:49.971Z,16.43
2022-11-25T05:32:13.812Z,15.33
2022-11-25T05:37:36.357Z,15.23
2022-11-25T05:43:03.259Z,16.00
2022-11-25T05:48:27.481Z,16.07
2022-11-25T05:53:49.958Z,15.57
2022-11-25T05:59:14.429Z,16.37
2022-11-25T06:04:47.780Z,15.50
2022-11-25T06:10:10.385Z,14.07
2022-11-25T06:15:41.567Z,15.40
2022-11-25T06:21:06.866Z,14.77
2022-11-25T06:26:29.506Z,13.87
2022-11-25T06:31:52.191Z,14.53
2022-11-25T06:37:37.440Z,13.87
2022-11-25T06:43:00.468Z,13.37
2022-11-25T06:48:22.992Z,13.17
2022-11-25T06:53:45.807Z,13.43
2022-11-25T06:59:08.738Z,13.50
2022-11-25T07:04:31.703Z,12.07
2022-11-25T07:09:53.939Z,12.97
2022-11-25T07:15:16.571Z,13.20
2022-11-25T07:20:39.457Z,11.50
2022-11-25T07:26:13.525Z,12.83
2022-11-25T07:31:47.163Z,13.03
2022-11-25T07:37:09.704Z,12.40
2022-11-25T07:42:33.233Z,11.67
2022-11-25T07:47:55.403Z,12.83
2022-11-25T07:53:17.913Z,12.33
2022-11-25T07:58:45.693Z,12.23
2022-11-25T08:04:09.614Z,12.23
2022-11-25T08:09:32.055Z,13.33
2022-11-25T08:14:54.671Z,12.80
2022-11-25T08:20:16.882Z,13.37
2022-11-25T08:25:48.972Z,13.00
2022-11-25T08:31:16.235Z,12.83
2022-11-25T08:36:39.208Z,12.90
2022-11-25T08:42:05.810Z,12.43
2022-11-25T08:47:28.222Z,12.00
2022-11-25T08:52:50.827Z,36.57
2022-11-25T08:58:13.356Z,35.47
2022-11-25T09:03:41.848Z,12.20
2022-11-25T09:09:06.138Z,11.03
2022-11-25T09:14:28.455Z,12.60
2022-11-25T09:19:50.772Z,13.20
2022-11-25T09:25:13.056Z,13.67
2022-11-25T09:30:37.389Z,13.43
2022-11-25T09:36:01.275Z,14.13
2022-11-25T09:41:53.800Z,12.70
2022-11-25T09:47:48.256Z,12.77
2022-11-25T09:53:24.513Z,11.87
2022-11-25T09:58:55.832Z,12.63
2022-11-25T10:04:28.830Z,12.87
2022-11-25T10:09:52.346Z,12.57
2022-11-25T10:15:30.413Z,10.90
2022-11-25T10:20:53.135Z,12.47
2022-11-25T10:26:20.945Z,12.57
2022-11-25T10:31:44.745Z,11.43
2022-11-25T10:37:14.093Z,12.87
2022-11-25T10:42:37.111Z,12.80
2022-11-25T10:48:13.285Z,12.43
2022-11-25T10:53:35.560Z,21.33
2022-11-25T10:58:57.978Z,14.10
2022-11-25T11:04:21.236Z,13.13
2022-11-25T11:09:45.383Z,11.93
2022-11-25T11:15:19.445Z,11.73
2022-11-25T11:20:51.343Z,11.33
2022-11-25T11:26:26.349Z,10.33
2022-11-25T11:31:56.837Z,10.03
2022-11-25T11:37:45.791Z,10.90
2022-11-25T11:43:17.192Z,11.30
2022-11-25T11:49:01.647Z,11.97
2022-11-25T11:54:36.953Z,10.83
2022-11-25T12:00:12.046Z,11.83
2022-11-25T12:05:38.228Z,11.43
2022-11-25T12:11:11.122Z,11.00
2022-11-25T12:16:44.766Z,11.17
2022-11-25T12:22:33.083Z,10.97
2022-11-25T12:28:02.168Z,11.23
2022-11-25T12:33:55.180Z,12.77
2022-11-25T12:39:39.748Z,12.43
2022-11-25T12:45:04.764Z,12.40
2022-11-25T12:50:40.769Z,12.23
2022-11-25T12:56:11.113Z,13.37
2022-11-25T13:01:58.890Z,13.17
2022-11-25T13:07:48.243Z,11.77
2022-11-25T13:14:05.756Z,13.47
2022-11-25T13:19:28.095Z,11.43
2022-11-25T13:24:51.064Z,11.53
2022-11-25T13:30:38.310Z,11.93
2022-11-25T13:36:01.307Z,11.77
2022-11-25T13:41:36.523Z,11.73
2022-11-25T13:47:20.240Z,12.60
2022-11-25T13:52:51.032Z,12.17
2022-11-25T13:58:18.151Z,14.07
2022-11-25T14:03:46.471Z,14.33
2022-11-25T14:10:03.350Z,13.57
2022-11-25T14:15:44.228Z,13.10
2022-11-25T14:21:20.393Z,11.63
2022-11-25T14:26:50.099Z,13.73
2022-11-25T14:32:29.933Z,11.43
2022-11-25T14:38:00.515Z,11.37
2022-11-25T14:43:27.629Z,11.77
2022-11-25T14:49:07.663Z,11.70
2022-11-25T14:54:43.571Z,12.37
2022-11-25T15:00:12.425Z,10.63
2022-11-25T15:05:37.565Z,11.47
2022-11-25T15:11:03.244Z,11.77
2022-11-25T15:16:40.553Z,11.90
2022-11-25T15:27:52.592Z,13.07
2022-11-25T15:33:14.998Z,11.40
2022-11-25T15:38:43.552Z,12.27
2022-11-25T15:44:06.676Z,14.70
2022-11-25T15:49:30.046Z,13.20
2022-11-25T15:54:55.901Z,10.77
2022-11-25T16:00:21.598Z,13.10
2022-11-25T16:05:54.298Z,12.50
2022-11-25T16:11:19.617Z,11.33
2022-11-25T16:16:42.023Z,11.30
2022-11-25T16:22:05.401Z,13.40
2022-11-25T16:27:29.623Z,11.60
2022-11-25T16:32:52.400Z,11.83
2022-11-25T16:38:15.096Z,13.20
2022-11-25T16:43:40.186Z,13.50
2022-11-25T16:49:08.336Z,13.73
2022-11-25T16:54:31.898Z,19.13
2022-11-25T16:59:58.737Z,13.93
2022-11-25T17:05:25.233Z,14.27
2022-11-25T17:10:49.057Z,14.20
2022-11-25T17:16:20.989Z,13.93
2022-11-25T17:21:44.610Z,14.53
2022-11-25T17:27:07.358Z,14.33
2022-11-25T17:32:29.784Z,13.03
2022-11-25T17:37:52.747Z,13.80
2022-11-25T17:43:17.111Z,14.40
2022-11-25T17:48:42.367Z,12.33
2022-11-25T17:54:05.157Z,11.83
2022-11-25T17:59:29.805Z,13.43
2022-11-25T18:04:52.154Z,12.43
2022-11-25T18:10:17.988Z,12.40
2022-11-25T18:15:40.573Z,12.23
2022-11-25T18:21:03.413Z,13.20
2022-11-25T18:26:26.145Z,11.73
2022-11-25T18:31:49.994Z,12.47
2022-11-25T18:37:12.775Z,12.43
2022-11-25T18:42:35.274Z,12.80
2022-11-25T18:47:58.356Z,13.47
2022-11-25T18:53:20.796Z,13.97
2022-11-25T18:58:50.881Z,15.07
2022-11-25T19:04:16.507Z,13.37
2022-11-25T19:09:39.165Z,13.83
2022-11-25T19:15:01.593Z,13.57
2022-11-25T19:20:26.033Z,13.03
2022-11-25T19:25:49.444Z,13.40
2022-11-25T19:31:12.969Z,13.53
2022-11-25T19:36:37.697Z,12.47
2022-11-25T19:42:00.579Z,13.43
2022-11-25T19:47:27.003Z,13.40
2022-11-25T19:52:50.071Z,13.97
2022-11-25T19:58:13.256Z,14.43
2022-11-25T20:03:36.832Z,13.73
2022-11-25T20:09:05.528Z,14.03
2022-11-25T20:14:34.755Z,15.47
2022-11-25T20:20:02.935Z,12.43
2022-11-25T20:25:26.987Z,13.07
2022-11-25T20:30:50.516Z,11.73
2022-11-25T20:36:16.437Z,11.90
2022-11-25T20:41:38.826Z,11.20
2022-11-25T20:47:01.305Z,11.20
2022-11-25T20:52:23.367Z,11.17
2022-11-25T20:57:46.128Z,10.10
2022-11-25T21:03:08.429Z,10.67
2022-11-25T21:08:31.607Z,10.90
2022-11-25T21:13:54.401Z,10.67
2022-11-25T21:19:16.680Z,11.33
2022-11-25T21:24:41.977Z,10.80
2022-11-25T21:30:04.429Z,10.67
2022-11-25T21:35:35.605Z,11.13
2022-11-25T21:40:58.704Z,11.23
2022-11-25T21:46:29.025Z,9.83
2022-11-25T21:51:51.736Z,10.20
2022-11-25T21:57:16.814Z,10.20
2022-11-25T22:02:39.314Z,10.83
2022-11-25T22:08:01.619Z,11.33
2022-11-25T22:13:37.064Z,10.47
2022-11-25T22:18:59.844Z,10.43
2022-11-25T22:24:23.735Z,11.00
2022-11-25T22:29:46.692Z,10.10
2022-11-25T22:35:18.788Z,10.17
2022-11-25T22:40:47.573Z,10.57
2022-11-25T22:46:10.991Z,11.10
2022-11-25T22:51:34.262Z,11.27
2022-11-25T22:56:57.231Z,10.27
2022-11-25T23:02:23.784Z,10.97
2022-11-25T23:07:46.051Z,10.33
2022-11-25T23:13:09.162Z,10.33
2022-11-25T23:18:40.416Z,9.47
2022-11-25T23:24:02.734Z,10.10
2022-11-25T23:29:24.948Z,9.63
2022-11-25T23:34:52.660Z,10.17
2022-11-25T23:40:19.244Z,10.10
2022-11-25T23:45:54.231Z,9.43
2022-11-25T23:51:16.553Z,10.00
2022-11-25T23:56:38.882Z,9.40
